Aérodrome :
LOGIN :

S'inscrire | Disclaimer

   EN    FR    IT 

 










Légende :    VFR   VFR Marginal   IFR   IFR Intensif   IFR Très Intensif
Visi : 
Plafond : 
>= 8 km
>= 3000ft
5 à 8 km
1000 à 3000 ft
1500m à 5 km
500 à 1000 ft
800 à 1500m
200 à 500 ft
< 800m
< 200 ft
Symboles :   Orages  Brouillard  Fortes neiges  Fortes précipitations  Vent > 20 kt
SIGMETs :   Divers  Orages  Givrage  Turbulence  Onde Orograph.  Cendres Volcan.







- Altitude de l'aérodrome : 245 ft
- Code IATA : BIQ
- Voir les cartes d'approche


LFBZ - Biarritz

DERNIER METAR :
  • 241630Z AUTO 28008KT 240V310 8000 OVC005 13/11 Q1025 TEMPO 0600 FG VV///

METARs EXPIRÉS :
  • 241600Z AUTO 28009KT 250V310 8000 OVC004 12/11 Q1025 TEMPO 3000 BR
  • 241530Z AUTO 29010KT 250V310 6000 OVC003 12/11 Q1025 TEMPO 3000 BR
  • 241500Z AUTO 27009KT 5000 BR BKN003 13/11 Q1025 TEMPO BKN005
  • 241430Z AUTO 26009KT 230V290 6000 BKN003 14/12 Q1025 TEMPO BKN005
  • 241400Z AUTO 28009KT 240V300 8000 FEW005 SCT160 15/12 Q1025 TEMPO BKN005

TAF AMD TAF LFBZ
Valide du 24 à 15h jusqu'au 25 à 12h UTC


241504Z 2415/2512 30008KT CAVOK
PROB40 2415/2507 3000 BR BKN003
PROB30
TEMPO 2418/2420 0600 FG VV///
BECMG 2507/2509 BKN035
Pas de NOTAMs connus pour ce terrain.



MET'MAP, la Météo Aéronautique d'un coup d'oeil ! - Copyright ORBIFLY Décembre 2007 - Disclaimer

ORBIFLY MET'MAP TEAM :

Programmation & Développement : Alexandra Zaïnal
Conception & Développement : Baudouin d'Aumeries
Co-Programmation & Développement : Marc-Olivier Méhu
Soutien technique & logistique : Manuel Goepfert

Contact : metmap@orbifly.com




SOURCES & CREDITS :

   NOAA